sensor_id;sensor_type;location;lat;lon;timestamp;pressure;altitude;pressure_sealevel;temperature;humidity
12868;BME280;33517;49.866;8.320;2023-03-25T00:00:39;99642.75;;;9.60;88.34
12868;BME280;33517;49.866;8.320;2023-03-25T00:03:35;99647.41;;;9.50;87.35
12868;BME280;33517;49.866;8.320;2023-03-25T00:06:28;99653.91;;;9.40;87.11
12868;BME280;33517;49.866;8.320;2023-03-25T00:09:19;99656.88;;;9.37;87.49
12868;BME280;33517;49.866;8.320;2023-03-25T00:12:11;99653.28;;;9.38;88.11
12868;BME280;33517;49.866;8.320;2023-03-25T00:15:04;99652.63;;;9.36;87.99
12868;BME280;33517;49.866;8.320;2023-03-25T00:17:58;99656.16;;;9.28;87.52
12868;BME280;33517;49.866;8.320;2023-03-25T00:20:51;99659.97;;;9.17;87.42
12868;BME280;33517;49.866;8.320;2023-03-25T00:23:44;99653.56;;;8.97;88.74
12868;BME280;33517;49.866;8.320;2023-03-25T00:26:35;99663.25;;;8.89;88.55
12868;BME280;33517;49.866;8.320;2023-03-25T00:29:32;99661.22;;;8.76;89.67
12868;BME280;33517;49.866;8.320;2023-03-25T00:32:24;99669.22;;;8.75;89.67
12868;BME280;33517;49.866;8.320;2023-03-25T00:35:21;99667.44;;;8.75;88.72
12868;BME280;33517;49.866;8.320;2023-03-25T00:38:13;99661.72;;;8.72;90.97
12868;BME280;33517;49.866;8.320;2023-03-25T00:41:14;99656.94;;;8.75;91.03
12868;BME280;33517;49.866;8.320;2023-03-25T00:44:13;99653.63;;;8.81;89.86
12868;BME280;33517;49.866;8.320;2023-03-25T00:47:06;99655.25;;;8.82;90.43
12868;BME280;33517;49.866;8.320;2023-03-25T00:49:58;99662.28;;;8.90;90.87
12868;BME280;33517;49.866;8.320;2023-03-25T00:52:54;99659.50;;;8.91;89.87
12868;BME280;33517;49.866;8.320;2023-03-25T00:55:46;99662.28;;;8.90;90.85
12868;BME280;33517;49.866;8.320;2023-03-25T00:58:38;99652.94;;;8.87;91.31
12868;BME280;33517;49.866;8.320;2023-03-25T01:01:30;99655.25;;;8.82;91.01
12868;BME280;33517;49.866;8.320;2023-03-25T01:04:22;99656.06;;;8.83;90.90
12868;BME280;33517;49.866;8.320;2023-03-25T01:07:13;99654.28;;;8.83;89.97
12868;BME280;33517;49.866;8.320;2023-03-25T01:15:20;99649.97;;;9.13;90.72
12868;BME280;33517;49.866;8.320;2023-03-25T01:18:12;99655.00;;;9.22;89.39
12868;BME280;33517;49.866;8.320;2023-03-25T01:21:06;99657.13;;;9.27;89.65
12868;BME280;33517;49.866;8.320;2023-03-25T01:23:58;99656.94;;;9.28;89.27
12868;BME280;33517;49.866;8.320;2023-03-25T01:26:50;99664.44;;;9.40;89.71
12868;BME280;33517;49.866;8.320;2023-03-25T01:29:41;99651.97;;;9.56;88.69
12868;BME280;33517;49.866;8.320;2023-03-25T01:32:35;99653.59;;;9.57;88.78
12868;BME280;33517;49.866;8.320;2023-03-25T01:35:26;99651.66;;;9.51;88.97
12868;BME280;33517;49.866;8.320;2023-03-25T01:38:18;99644.97;;;9.49;88.57
12868;BME280;33517;49.866;8.320;2023-03-25T01:41:10;99642.00;;;9.52;87.72
12868;BME280;33517;49.866;8.320;2023-03-25T01:44:04;99643.22;;;9.64;88.51
12868;BME280;33517;49.866;8.320;2023-03-25T01:46:59;99638.94;;;9.63;87.67
12868;BME280;33517;49.866;8.320;2023-03-25T01:49:56;99629.56;;;9.68;87.42
12868;BME280;33517;49.866;8.320;2023-03-25T01:52:50;99627.66;;;9.77;87.22
12868;BME280;33517;49.866;8.320;2023-03-25T01:55:43;99621.56;;;9.76;87.34
12868;BME280;33517;49.866;8.320;2023-03-25T01:58:35;99609.72;;;9.80;86.09
12868;BME280;33517;49.866;8.320;2023-03-25T02:01:27;99606.09;;;9.81;85.54
12868;BME280;33517;49.866;8.320;2023-03-25T02:04:28;99604.63;;;9.79;86.26
12868;BME280;33517;49.866;8.320;2023-03-25T02:07:32;99596.50;;;9.74;86.08
12868;BME280;33517;49.866;8.320;2023-03-25T02:10:24;99593.75;;;9.67;87.11
12868;BME280;33517;49.866;8.320;2023-03-25T02:13:17;99585.88;;;9.67;88.19
12868;BME280;33517;49.866;8.320;2023-03-25T02:16:21;99569.03;;;9.62;88.23
12868;BME280;33517;49.866;8.320;2023-03-25T02:19:43;99572.28;;;9.64;88.47
12868;BME280;33517;49.866;8.320;2023-03-25T02:23:08;99568.44;;;9.52;88.46
12868;BME280;33517;49.866;8.320;2023-03-25T02:26:22;99565.00;;;9.51;88.41
12868;BME280;33517;49.866;8.320;2023-03-25T02:29:26;99560.94;;;9.49;88.48
12868;BME280;33517;49.866;8.320;2023-03-25T02:32:32;99563.19;;;9.52;87.80
12868;BME280;33517;49.866;8.320;2023-03-25T02:35:42;99569.72;;;9.56;87.06
12868;BME280;33517;49.866;8.320;2023-03-25T02:38:43;99569.28;;;9.67;85.71
12868;BME280;33517;49.866;8.320;2023-03-25T02:41:42;99559.22;;;9.70;85.36
12868;BME280;33517;49.866;8.320;2023-03-25T02:44:40;99579.53;;;9.76;84.01
12868;BME280;33517;49.866;8.320;2023-03-25T02:47:35;99582.25;;;9.83;83.12
12868;BME280;33517;49.866;8.320;2023-03-25T02:50:32;99587.25;;;9.78;83.44
12868;BME280;33517;49.866;8.320;2023-03-25T02:53:28;99590.22;;;9.75;83.42
12868;BME280;33517;49.866;8.320;2023-03-25T02:56:25;99589.66;;;9.65;83.16
12868;BME280;33517;49.866;8.320;2023-03-25T02:59:19;99576.06;;;9.61;83.70
12868;BME280;33517;49.866;8.320;2023-03-25T03:02:16;99592.28;;;9.50;82.79
12868;BME280;33517;49.866;8.320;2023-03-25T03:05:21;99598.41;;;9.43;83.44
12868;BME280;33517;49.866;8.320;2023-03-25T03:08:25;99601.22;;;9.41;84.43
12868;BME280;33517;49.866;8.320;2023-03-25T03:11:22;99597.66;;;9.34;84.25
12868;BME280;33517;49.866;8.320;2023-03-25T03:14:29;99595.75;;;9.28;84.93
12868;BME280;33517;49.866;8.320;2023-03-25T03:17:29;99614.00;;;9.21;85.21
12868;BME280;33517;49.866;8.320;2023-03-25T03:20:29;99604.84;;;9.17;85.54
12868;BME280;33517;49.866;8.320;2023-03-25T03:23:27;99597.63;;;9.19;86.09
12868;BME280;33517;49.866;8.320;2023-03-25T03:26:27;99595.28;;;9.24;85.41
12868;BME280;33517;49.866;8.320;2023-03-25T03:29:27;99595.13;;;9.26;85.29
12868;BME280;33517;49.866;8.320;2023-03-25T03:32:27;99605.13;;;9.22;85.04
12868;BME280;33517;49.866;8.320;2023-03-25T03:35:23;99600.72;;;9.23;85.58
12868;BME280;33517;49.866;8.320;2023-03-25T03:38:20;99605.13;;;9.22;85.41
12868;BME280;33517;49.866;8.320;2023-03-25T03:41:17;99604.97;;;9.24;84.82
12868;BME280;33517;49.866;8.320;2023-03-25T03:44:12;99612.22;;;9.22;85.47
12868;BME280;33517;49.866;8.320;2023-03-25T03:47:09;99613.31;;;9.27;85.78
12868;BME280;33517;49.866;8.320;2023-03-25T03:50:05;99621.72;;;9.23;85.11
12868;BME280;33517;49.866;8.320;2023-03-25T03:53:04;99628.75;;;9.22;85.42
12868;BME280;33517;49.866;8.320;2023-03-25T03:56:01;99631.22;;;9.24;84.59
12868;BME280;33517;49.866;8.320;2023-03-25T03:58:56;99632.03;;;9.24;85.31
12868;BME280;33517;49.866;8.320;2023-03-25T04:01:50;99621.25;;;9.19;85.07
12868;BME280;33517;49.866;8.320;2023-03-25T04:04:45;99630.47;;;9.15;85.22
12868;BME280;33517;49.866;8.320;2023-03-25T04:07:39;99636.75;;;9.06;85.29
12868;BME280;33517;49.866;8.320;2023-03-25T04:10:35;99644.28;;;9.09;84.86
12868;BME280;33517;49.866;8.320;2023-03-25T04:13:34;99646.66;;;9.19;84.41
12868;BME280;33517;49.866;8.320;2023-03-25T04:16:27;99653.38;;;9.21;84.70
12868;BME280;33517;49.866;8.320;2023-03-25T04:19:19;99648.41;;;9.26;83.89
12868;BME280;33517;49.866;8.320;2023-03-25T04:22:12;99653.34;;;9.29;83.88
12868;BME280;33517;49.866;8.320;2023-03-25T04:25:05;99652.97;;;9.32;84.19
12868;BME280;33517;49.866;8.320;2023-03-25T04:27:57;99650.16;;;9.34;84.15
12868;BME280;33517;49.866;8.320;2023-03-25T04:30:49;99658.41;;;9.31;83.46
12868;BME280;33517;49.866;8.320;2023-03-25T04:33:45;99667.81;;;9.25;83.68
12868;BME280;33517;49.866;8.320;2023-03-25T04:36:38;99673.09;;;9.17;83.32
12868;BME280;33517;49.866;8.320;2023-03-25T04:39:32;99665.41;;;9.16;84.21
12868;BME280;33517;49.866;8.320;2023-03-25T04:42:24;99679.03;;;9.11;84.57
12868;BME280;33517;49.866;8.320;2023-03-25T04:45:22;99671.63;;;9.15;85.06
12868;BME280;33517;49.866;8.320;2023-03-25T04:48:19;99676.00;;;9.22;84.29
12868;BME280;33517;49.866;8.320;2023-03-25T04:51:13;99678.31;;;9.25;84.13
12868;BME280;33517;49.866;8.320;2023-03-25T04:54:06;99678.00;;;9.20;83.75
12868;BME280;33517;49.866;8.320;2023-03-25T04:56:59;99670.88;;;9.29;84.10
12868;BME280;33517;49.866;8.320;2023-03-25T04:59:51;99671.25;;;9.26;83.55
12868;BME280;33517;49.866;8.320;2023-03-25T05:02:43;99675.22;;;9.22;84.93
12868;BME280;33517;49.866;8.320;2023-03-25T05:05:37;99671.94;;;9.20;84.85
12868;BME280;33517;49.866;8.320;2023-03-25T05:08:29;99671.13;;;9.19;84.90
12868;BME280;33517;49.866;8.320;2023-03-25T05:11:21;99670.41;;;9.25;85.79
12868;BME280;33517;49.866;8.320;2023-03-25T05:14:15;99675.84;;;9.24;85.18
12868;BME280;33517;49.866;8.320;2023-03-25T05:17:08;99667.63;;;9.27;84.78
12868;BME280;33517;49.866;8.320;2023-03-25T05:19:59;99678.75;;;9.29;84.74
12868;BME280;33517;49.866;8.320;2023-03-25T05:22:52;99682.22;;;9.29;85.06
12868;BME280;33517;49.866;8.320;2023-03-25T05:25:48;99676.13;;;9.29;85.77
12868;BME280;33517;49.866;8.320;2023-03-25T05:28:40;99684.47;;;9.10;86.48
12868;BME280;33517;49.866;8.320;2023-03-25T05:31:34;99684.00;;;8.76;90.17
12868;BME280;33517;49.866;8.320;2023-03-25T05:34:26;99692.28;;;8.49;93.07
12868;BME280;33517;49.866;8.320;2023-03-25T05:37:19;99687.25;;;8.39;96.12
12868;BME280;33517;49.866;8.320;2023-03-25T05:40:11;99706.25;;;8.41;97.21
12868;BME280;33517;49.866;8.320;2023-03-25T05:43:04;99701.31;;;8.46;98.67
12868;BME280;33517;49.866;8.320;2023-03-25T05:45:56;99704.56;;;8.56;98.45
12868;BME280;33517;49.866;8.320;2023-03-25T05:48:49;99708.31;;;8.62;97.27
12868;BME280;33517;49.866;8.320;2023-03-25T05:51:42;99700.91;;;8.65;97.91
12868;BME280;33517;49.866;8.320;2023-03-25T05:54:34;99702.09;;;8.63;97.70
12868;BME280;33517;49.866;8.320;2023-03-25T05:57:28;99702.75;;;8.65;98.26
12868;BME280;33517;49.866;8.320;2023-03-25T06:00:20;99697.13;;;8.76;97.53
12868;BME280;33517;49.866;8.320;2023-03-25T06:03:12;99704.94;;;8.84;96.73
12868;BME280;33517;49.866;8.320;2023-03-25T06:06:06;99716.81;;;9.02;97.50
12868;BME280;33517;49.866;8.320;2023-03-25T06:09:03;99721.56;;;9.07;95.71
12868;BME280;33517;49.866;8.320;2023-03-25T06:11:55;99731.44;;;8.97;95.36
12868;BME280;33517;49.866;8.320;2023-03-25T06:14:47;99724.69;;;9.02;95.39
12868;BME280;33517;49.866;8.320;2023-03-25T06:17:43;99725.59;;;9.17;94.45
12868;BME280;33517;49.866;8.320;2023-03-25T06:20:36;99721.16;;;9.18;93.86
12868;BME280;33517;49.866;8.320;2023-03-25T06:23:30;99725.25;;;9.20;92.73
12868;BME280;33517;49.866;8.320;2023-03-25T06:26:24;99721.13;;;9.26;92.58
12868;BME280;33517;49.866;8.320;2023-03-25T06:29:16;99717.00;;;9.32;91.36
12868;BME280;33517;49.866;8.320;2023-03-25T06:32:10;99724.59;;;9.49;88.73
12868;BME280;33517;49.866;8.320;2023-03-25T06:35:03;99726.28;;;10.39;86.44
12868;BME280;33517;49.866;8.320;2023-03-25T06:37:55;99715.47;;;10.34;85.32
12868;BME280;33517;49.866;8.320;2023-03-25T06:40:48;99724.31;;;11.42;83.62
12868;BME280;33517;49.866;8.320;2023-03-25T06:43:41;99716.13;;;12.89;76.54
12868;BME280;33517;49.866;8.320;2023-03-25T06:46:33;99718.00;;;13.75;71.22
12868;BME280;33517;49.866;8.320;2023-03-25T06:49:24;99718.38;;;13.66;70.24
12868;BME280;33517;49.866;8.320;2023-03-25T06:52:16;99730.41;;;12.33;71.37
12868;BME280;33517;49.866;8.320;2023-03-25T06:55:08;99718.94;;;11.50;75.15
12868;BME280;33517;49.866;8.320;2023-03-25T06:58:02;99720.59;;;11.15;76.48
12868;BME280;33517;49.866;8.320;2023-03-25T07:00:54;99727.63;;;11.86;75.93
12868;BME280;33517;49.866;8.320;2023-03-25T07:03:45;99718.78;;;14.48;68.42
12868;BME280;33517;49.866;8.320;2023-03-25T07:06:37;99727.31;;;14.63;64.07
12868;BME280;33517;49.866;8.320;2023-03-25T07:09:29;99722.53;;;13.15;66.21
12868;BME280;33517;49.866;8.320;2023-03-25T07:12:22;99730.03;;;12.70;69.67
12868;BME280;33517;49.866;8.320;2023-03-25T07:15:15;99729.97;;;11.60;73.23
12868;BME280;33517;49.866;8.320;2023-03-25T07:18:07;99724.00;;;11.30;74.60
12868;BME280;33517;49.866;8.320;2023-03-25T07:20:59;99719.50;;;11.09;75.99
12868;BME280;33517;49.866;8.320;2023-03-25T07:23:51;99727.81;;;10.92;76.81
12868;BME280;33517;49.866;8.320;2023-03-25T07:26:43;99710.91;;;11.01;77.55
12868;BME280;33517;49.866;8.320;2023-03-25T07:29:35;99704.50;;;11.10;77.43
12868;BME280;33517;49.866;8.320;2023-03-25T07:32:28;99697.47;;;11.32;76.35
12868;BME280;33517;49.866;8.320;2023-03-25T07:35:20;99697.13;;;11.77;75.25
12868;BME280;33517;49.866;8.320;2023-03-25T07:38:11;99697.53;;;11.59;75.48
12868;BME280;33517;49.866;8.320;2023-03-25T07:41:04;99698.47;;;12.96;72.50
12868;BME280;33517;49.866;8.320;2023-03-25T07:43:57;99695.94;;;13.16;68.15
12868;BME280;33517;49.866;8.320;2023-03-25T07:46:49;99685.66;;;14.06;66.90
12868;BME280;33517;49.866;8.320;2023-03-25T07:49:42;99702.13;;;14.08;63.73
12868;BME280;33517;49.866;8.320;2023-03-25T07:52:34;99691.53;;;14.21;65.02
12868;BME280;33517;49.866;8.320;2023-03-25T07:55:27;99689.72;;;15.30;60.10
12868;BME280;33517;49.866;8.320;2023-03-25T07:58:19;99698.66;;;15.42;58.26
12868;BME280;33517;49.866;8.320;2023-03-25T08:01:11;99697.66;;;13.76;62.28
12868;BME280;33517;49.866;8.320;2023-03-25T08:04:03;99695.09;;;15.23;60.20
12868;BME280;33517;49.866;8.320;2023-03-25T08:06:56;99708.81;;;14.11;61.74
12868;BME280;33517;49.866;8.320;2023-03-25T08:09:48;99706.19;;;13.98;61.95
12868;BME280;33517;49.866;8.320;2023-03-25T08:12:40;99700.59;;;13.21;63.73
12868;BME280;33517;49.866;8.320;2023-03-25T08:15:32;99705.09;;;12.79;65.41
12868;BME280;33517;49.866;8.320;2023-03-25T08:18:24;99712.41;;;12.43;67.10
12868;BME280;33517;49.866;8.320;2023-03-25T08:21:16;99710.41;;;11.90;68.12
12868;BME280;33517;49.866;8.320;2023-03-25T08:24:13;99714.28;;;12.22;68.92
12868;BME280;33517;49.866;8.320;2023-03-25T08:27:04;99710.34;;;16.39;60.87
12868;BME280;33517;49.866;8.320;2023-03-25T08:29:56;99704.84;;;16.95;55.07
12868;BME280;33517;49.866;8.320;2023-03-25T08:32:49;99709.72;;;14.88;57.78
12868;BME280;33517;49.866;8.320;2023-03-25T08:35:43;99707.38;;;13.43;61.28
12868;BME280;33517;49.866;8.320;2023-03-25T08:38:35;99710.75;;;12.70;64.99
12868;BME280;33517;49.866;8.320;2023-03-25T08:41:28;99720.81;;;12.53;66.13
12868;BME280;33517;49.866;8.320;2023-03-25T08:44:20;99706.38;;;12.49;67.12
12868;BME280;33517;49.866;8.320;2023-03-25T08:47:12;99697.75;;;12.34;66.63
12868;BME280;33517;49.866;8.320;2023-03-25T08:50:05;99705.47;;;12.36;67.70
12868;BME280;33517;49.866;8.320;2023-03-25T08:52:57;99702.28;;;12.47;67.70
12868;BME280;33517;49.866;8.320;2023-03-25T08:55:49;99709.94;;;12.35;68.01
12868;BME280;33517;49.866;8.320;2023-03-25T08:58:43;99684.66;;;12.54;68.17
12868;BME280;33517;49.866;8.320;2023-03-25T09:01:35;99683.75;;;12.40;68.29
12868;BME280;33517;49.866;8.320;2023-03-25T09:04:27;99691.31;;;12.43;68.53
12868;BME280;33517;49.866;8.320;2023-03-25T09:07:20;99697.47;;;12.23;70.10
12868;BME280;33517;49.866;8.320;2023-03-25T09:10:13;99690.56;;;12.22;69.23
12868;BME280;33517;49.866;8.320;2023-03-25T09:13:05;99690.03;;;12.05;68.57
12868;BME280;33517;49.866;8.320;2023-03-25T09:15:58;99682.00;;;12.13;69.45
12868;BME280;33517;49.866;8.320;2023-03-25T09:18:50;99668.69;;;12.00;68.07
12868;BME280;33517;49.866;8.320;2023-03-25T09:21:42;99669.84;;;11.91;69.19
12868;BME280;33517;49.866;8.320;2023-03-25T09:24:33;99665.75;;;11.88;69.63
12868;BME280;33517;49.866;8.320;2023-03-25T09:27:25;99679.56;;;11.90;69.93
12868;BME280;33517;49.866;8.320;2023-03-25T09:30:17;99674.56;;;11.95;69.97
12868;BME280;33517;49.866;8.320;2023-03-25T09:33:10;99683.53;;;12.01;71.45
12868;BME280;33517;49.866;8.320;2023-03-25T09:36:03;99681.31;;;12.04;69.72
12868;BME280;33517;49.866;8.320;2023-03-25T09:38:56;99677.41;;;12.28;70.12
12868;BME280;33517;49.866;8.320;2023-03-25T09:42:03;99682.88;;;12.61;68.92
12868;BME280;33517;49.866;8.320;2023-03-25T09:45:05;99684.59;;;13.35;67.24
12868;BME280;33517;49.866;8.320;2023-03-25T09:48:21;99689.50;;;13.64;67.00
12868;BME280;33517;49.866;8.320;2023-03-25T09:51:19;99674.56;;;14.55;63.43
12868;BME280;33517;49.866;8.320;2023-03-25T09:54:18;99669.59;;;14.85;62.13
12868;BME280;33517;49.866;8.320;2023-03-25T09:57:15;99669.66;;;14.71;61.62
12868;BME280;33517;49.866;8.320;2023-03-25T10:00:16;99674.25;;;14.06;61.78
12868;BME280;33517;49.866;8.320;2023-03-25T10:03:15;99698.94;;;13.13;63.49
12868;BME280;33517;49.866;8.320;2023-03-25T10:06:17;99734.22;;;12.24;68.21
12868;BME280;33517;49.866;8.320;2023-03-25T10:09:23;99727.03;;;11.12;73.08
12868;BME280;33517;49.866;8.320;2023-03-25T10:12:28;99721.09;;;10.89;76.60
12868;BME280;33517;49.866;8.320;2023-03-25T10:15:29;99743.78;;;10.32;81.82
12868;BME280;33517;49.866;8.320;2023-03-25T10:18:36;99749.53;;;10.13;83.88
12868;BME280;33517;49.866;8.320;2023-03-25T10:21:39;99762.22;;;10.09;83.92
12868;BME280;33517;49.866;8.320;2023-03-25T10:24:39;99755.91;;;9.96;85.75
12868;BME280;33517;49.866;8.320;2023-03-25T10:27:35;99756.94;;;10.61;86.42
12868;BME280;33517;49.866;8.320;2023-03-25T10:30:31;99735.94;;;15.47;73.78
12868;BME280;33517;49.866;8.320;2023-03-25T10:33:29;99722.66;;;14.45;68.13
12868;BME280;33517;49.866;8.320;2023-03-25T10:36:30;99719.84;;;16.04;67.98
12868;BME280;33517;49.866;8.320;2023-03-25T10:39:31;99722.22;;;18.79;57.35
12868;BME280;33517;49.866;8.320;2023-03-25T10:42:30;99710.97;;;21.21;50.89
12868;BME280;33517;49.866;8.320;2023-03-25T10:45:25;99721.81;;;21.09;48.95
12868;BME280;33517;49.866;8.320;2023-03-25T10:48:20;99733.88;;;22.19;44.82
12868;BME280;33517;49.866;8.320;2023-03-25T10:51:16;99725.69;;;21.19;46.15
12868;BME280;33517;49.866;8.320;2023-03-25T10:54:10;99715.34;;;21.80;45.40
12868;BME280;33517;49.866;8.320;2023-03-25T10:57:06;99729.09;;;20.54;49.41
12868;BME280;33517;49.866;8.320;2023-03-25T11:00:03;99722.09;;;18.28;48.99
12868;BME280;33517;49.866;8.320;2023-03-25T11:02:58;99719.56;;;17.09;53.83
12868;BME280;33517;49.866;8.320;2023-03-25T11:05:51;99725.41;;;17.00;52.83
12868;BME280;33517;49.866;8.320;2023-03-25T11:08:55;99725.78;;;16.49;54.99
12868;BME280;33517;49.866;8.320;2023-03-25T11:11:48;99728.44;;;17.81;52.63
12868;BME280;33517;49.866;8.320;2023-03-25T11:14:41;99728.66;;;17.79;52.81
12868;BME280;33517;49.866;8.320;2023-03-25T11:17:34;99730.69;;;19.16;48.55
12868;BME280;33517;49.866;8.320;2023-03-25T11:20:28;99727.19;;;21.09;44.62
12868;BME280;33517;49.866;8.320;2023-03-25T11:23:25;99730.16;;;23.18;42.20
12868;BME280;33517;49.866;8.320;2023-03-25T11:26:20;99731.66;;;23.96;39.91
12868;BME280;33517;49.866;8.320;2023-03-25T11:29:16;99727.66;;;23.94;37.93
12868;BME280;33517;49.866;8.320;2023-03-25T11:32:13;99725.00;;;22.50;39.14
12868;BME280;33517;49.866;8.320;2023-03-25T11:35:13;99725.00;;;22.50;41.01
12868;BME280;33517;49.866;8.320;2023-03-25T11:38:14;99725.38;;;22.27;41.57
12868;BME280;33517;49.866;8.320;2023-03-25T11:41:06;99722.13;;;22.20;39.68
12868;BME280;33517;49.866;8.320;2023-03-25T11:43:58;99717.44;;;19.77;43.27
12868;BME280;33517;49.866;8.320;2023-03-25T11:46:53;99727.69;;;17.62;47.09
12868;BME280;33517;49.866;8.320;2023-03-25T11:49:48;99721.97;;;16.38;50.30
12868;BME280;33517;49.866;8.320;2023-03-25T11:52:42;99726.19;;;16.46;51.42
12868;BME280;33517;49.866;8.320;2023-03-25T11:55:41;99705.19;;;18.80;46.09
12868;BME280;33517;49.866;8.320;2023-03-25T11:58:36;99706.00;;;18.81;46.63
12868;BME280;33517;49.866;8.320;2023-03-25T12:01:40;99697.09;;;21.77;41.83
12868;BME280;33517;49.866;8.320;2023-03-25T12:04:34;99688.19;;;22.35;39.10
12868;BME280;33517;49.866;8.320;2023-03-25T12:07:28;99690.56;;;21.15;40.40
12868;BME280;33517;49.866;8.320;2023-03-25T12:10:31;99688.75;;;19.84;43.33
12868;BME280;33517;49.866;8.320;2023-03-25T12:13:38;99699.28;;;18.09;46.94
12868;BME280;33517;49.866;8.320;2023-03-25T12:16:38;99708.84;;;16.68;50.62
12868;BME280;33517;49.866;8.320;2023-03-25T12:19:44;99708.75;;;16.93;52.88
12868;BME280;33517;49.866;8.320;2023-03-25T12:22:50;99685.25;;;20.00;48.34
12868;BME280;33517;49.866;8.320;2023-03-25T12:25:50;99691.88;;;22.29;43.30
12868;BME280;33517;49.866;8.320;2023-03-25T12:29:08;99677.91;;;23.66;39.85
12868;BME280;33517;49.866;8.320;2023-03-25T12:32:10;99682.50;;;23.96;38.17
12868;BME280;33517;49.866;8.320;2023-03-25T12:35:16;99673.44;;;22.01;39.61
12868;BME280;33517;49.866;8.320;2023-03-25T12:38:31;99677.41;;;19.77;41.50
12868;BME280;33517;49.866;8.320;2023-03-25T12:41:30;99681.09;;;17.41;45.67
12868;BME280;33517;49.866;8.320;2023-03-25T12:44:48;99710.91;;;15.36;53.24
12868;BME280;33517;49.866;8.320;2023-03-25T12:47:42;99730.41;;;13.95;61.32
12868;BME280;33517;49.866;8.320;2023-03-25T12:50:48;99701.50;;;13.67;63.66
12868;BME280;33517;49.866;8.320;2023-03-25T12:53:53;99677.59;;;17.29;54.26
12868;BME280;33517;49.866;8.320;2023-03-25T12:56:59;99658.09;;;19.14;48.58
12868;BME280;33517;49.866;8.320;2023-03-25T13:00:05;99650.75;;;20.15;44.35
12868;BME280;33517;49.866;8.320;2023-03-25T13:03:13;99657.84;;;20.43;42.76
12868;BME280;33517;49.866;8.320;2023-03-25T13:06:16;99666.69;;;20.27;42.99
12868;BME280;33517;49.866;8.320;2023-03-25T13:09:18;99647.97;;;21.08;42.38
12868;BME280;33517;49.866;8.320;2023-03-25T13:12:16;99662.56;;;20.58;40.12
12868;BME280;33517;49.866;8.320;2023-03-25T13:15:14;99661.22;;;20.55;40.60
12868;BME280;33517;49.866;8.320;2023-03-25T13:18:10;99652.88;;;20.73;39.28
12868;BME280;33517;49.866;8.320;2023-03-25T13:21:05;99649.34;;;20.89;38.06
12868;BME280;33517;49.866;8.320;2023-03-25T13:24:04;99647.97;;;20.87;38.86
12868;BME280;33517;49.866;8.320;2023-03-25T13:26:58;99634.72;;;20.54;38.93
12868;BME280;33517;49.866;8.320;2023-03-25T13:29:53;99658.88;;;18.58;42.16
12868;BME280;33517;49.866;8.320;2023-03-25T13:32:48;99663.06;;;18.43;42.18
12868;BME280;33517;49.866;8.320;2023-03-25T13:35:43;99663.59;;;17.34;44.96
12868;BME280;33517;49.866;8.320;2023-03-25T13:38:40;99634.84;;;19.26;42.26
12868;BME280;33517;49.866;8.320;2023-03-25T13:41:37;99641.72;;;19.67;41.38
12868;BME280;33517;49.866;8.320;2023-03-25T13:44:34;99634.00;;;20.80;39.96
12868;BME280;33517;49.866;8.320;2023-03-25T13:47:30;99632.38;;;20.57;39.45
12868;BME280;33517;49.866;8.320;2023-03-25T13:50:27;99624.97;;;18.42;40.76
12868;BME280;33517;49.866;8.320;2023-03-25T13:53:25;99637.72;;;17.41;42.37
12868;BME280;33517;49.866;8.320;2023-03-25T13:56:40;99629.19;;;16.80;44.09
12868;BME280;33517;49.866;8.320;2023-03-25T14:00:07;99622.53;;;16.34;41.98
12868;BME280;33517;49.866;8.320;2023-03-25T14:03:33;99626.53;;;16.43;43.16
12868;BME280;33517;49.866;8.320;2023-03-25T14:07:01;99641.38;;;16.69;43.61
12868;BME280;33517;49.866;8.320;2023-03-25T14:13:26;99644.72;;;16.94;44.77
12868;BME280;33517;49.866;8.320;2023-03-25T14:16:23;99647.97;;;17.56;44.07
12868;BME280;33517;49.866;8.320;2023-03-25T14:19:20;99642.34;;;18.10;40.71
12868;BME280;33517;49.866;8.320;2023-03-25T14:22:16;99635.00;;;17.59;41.19
12868;BME280;33517;49.866;8.320;2023-03-25T14:25:18;99632.72;;;17.97;39.57
12868;BME280;33517;49.866;8.320;2023-03-25T14:28:15;99644.66;;;18.18;39.52
12868;BME280;33517;49.866;8.320;2023-03-25T14:34:22;99654.50;;;17.12;42.53
12868;BME280;33517;49.866;8.320;2023-03-25T14:37:24;99662.59;;;17.99;42.12
12868;BME280;33517;49.866;8.320;2023-03-25T14:40:45;99653.09;;;18.03;41.46
12868;BME280;33517;49.866;8.320;2023-03-25T14:43:38;99645.94;;;17.92;41.43
12868;BME280;33517;49.866;8.320;2023-03-25T14:46:34;99637.91;;;17.69;41.86
12868;BME280;33517;49.866;8.320;2023-03-25T14:49:46;99634.47;;;17.39;42.10
12868;BME280;33517;49.866;8.320;2023-03-25T14:52:42;99634.97;;;16.88;42.94
12868;BME280;33517;49.866;8.320;2023-03-25T14:55:40;99632.81;;;16.67;42.71
12868;BME280;33517;49.866;8.320;2023-03-25T14:58:36;99645.09;;;16.25;42.73
12868;BME280;33517;49.866;8.320;2023-03-25T15:01:33;99639.38;;;15.86;44.37
12868;BME280;33517;49.866;8.320;2023-03-25T15:04:29;99641.06;;;15.55;46.21
12868;BME280;33517;49.866;8.320;2023-03-25T15:07:40;99641.59;;;15.33;47.37
12868;BME280;33517;49.866;8.320;2023-03-25T15:10:37;99643.53;;;15.19;47.11
12868;BME280;33517;49.866;8.320;2023-03-25T15:13:32;99640.69;;;15.14;47.37
12868;BME280;33517;49.866;8.320;2023-03-25T15:16:31;99647.75;;;15.27;46.42
12868;BME280;33517;49.866;8.320;2023-03-25T15:19:24;99645.59;;;15.11;46.08
12868;BME280;33517;49.866;8.320;2023-03-25T15:22:21;99638.28;;;15.06;46.32
12868;BME280;33517;49.866;8.320;2023-03-25T15:25:15;99640.53;;;15.03;47.06
12868;BME280;33517;49.866;8.320;2023-03-25T15:28:13;99631.50;;;14.79;47.55
12868;BME280;33517;49.866;8.320;2023-03-25T15:31:20;99639.03;;;14.75;45.70
12868;BME280;33517;49.866;8.320;2023-03-25T15:34:24;99629.72;;;14.66;45.39
12868;BME280;33517;49.866;8.320;2023-03-25T15:37:43;99629.41;;;14.43;45.72
12868;BME280;33517;49.866;8.320;2023-03-25T15:40:49;99630.25;;;14.31;46.57
12868;BME280;33517;49.866;8.320;2023-03-25T15:44:02;99612.69;;;14.49;44.71
12868;BME280;33517;49.866;8.320;2023-03-25T15:47:44;99635.53;;;14.37;45.76
12868;BME280;33517;49.866;8.320;2023-03-25T15:50:53;99636.13;;;14.39;46.51
12868;BME280;33517;49.866;8.320;2023-03-25T15:54:07;99662.41;;;14.41;46.57